WetterOnline ( https://www.wetteronline.de )

Wetter aktuell Herten

Aktuelles Wetter: Essen (161m)

6-stündlich | Neueste Meldungen
Ortszeit Temperatur Wetter
Sa, 24.10. 14:00 13.7° C bedeckt
Sa, 24.10. 8:00 11.9° C bedeckt
Sa, 24.10. 2:00 12.8° C bewölkt
Fr, 23.10. 20:00 13.5° C leicht bewölkt
Fr, 23.10. 14:00 14.3° C leichter Regen
Fr, 23.10. 8:00 12.7° C bedeckt
Fr, 23.10. 2:00 13.9° C wolkig
Do, 22.10. 20:00 15.3° C wolkig
Ortszeit Temperatur Wetter
Sa, 24.10. 14:30 14.1° C bedeckt
Sa, 24.10. 14:20 14.1° C bedeckt
Sa, 24.10. 14:10 14.1° C bedeckt
Sa, 24.10. 14:00 13.7° C bedeckt
Sa, 24.10. 13:50 13.7° C bedeckt
Sa, 24.10. 13:40 13.7° C bedeckt
Sa, 24.10. 13:30 13.5° C bewölkt
Sa, 24.10. 13:00 13.7° C bedeckt
Ortszeit Relative Feuchte Sichtweite
Sa, 24.10. 14:00 75% 65 km
Sa, 24.10. 8:00 90% 35 km
Sa, 24.10. 2:00 90% 30 km
Fr, 23.10. 20:00 96% 16 km
Fr, 23.10. 14:00 94% 21 km
Fr, 23.10. 8:00 96% 11 km
Fr, 23.10. 2:00 92% 21 km
Do, 22.10. 20:00 87% 45 km
Ortszeit Relative Feuchte Sichtweite
Sa, 24.10. 14:30 72% >70 km
Sa, 24.10. 14:20 72% -
Sa, 24.10. 14:10 72% -
Sa, 24.10. 14:00 75% 65 km
Sa, 24.10. 13:50 75% -
Sa, 24.10. 13:40 75% -
Sa, 24.10. 13:30 77% 30 km
Sa, 24.10. 13:00 77% 65 km
Ortszeit Niederschlagsmenge Niederschlagsart
Sa, 24.10. 14:00 0.1 l/m2 in 6 Std. Regen
Sa, 24.10. 8:00 0.3 l/m2 in 12 Std. -
Sa, 24.10. 2:00 0.3 l/m2 in 6 Std. Regen
Fr, 23.10. 20:00 5 l/m2 in 12 Std. Regen
Fr, 23.10. 14:00 5 l/m2 in 6 Std. Regen
Fr, 23.10. 8:00 0.1 l/m2 in 12 Std. Regen
Fr, 23.10. 2:00 0.0 l/m2 in 6 Std. -
Do, 22.10. 20:00 0.1 l/m2 in 12 Std. Regen
Ortszeit Niederschlagsmenge Niederschlagsart
Sa, 24.10. 14:30 0.0 l/m2 in 1 Std. -
Sa, 24.10. 14:20 keine Meldung -
Sa, 24.10. 14:10 keine Meldung -
Sa, 24.10. 14:00 0.1 l/m2 in 1 Std. Regen
Sa, 24.10. 13:50 keine Meldung -
Sa, 24.10. 13:40 keine Meldung -
Sa, 24.10. 13:30 0.0 l/m2 in 1 Std. -
Sa, 24.10. 13:00 0.1 l/m2 in 1 Std. Sprühregen
Ortszeit Stärke Spitze Richtung
km/h Bft. km/h Grad Sektor
Sa, 24.10. 14:00 24 4 50 210° SW
Sa, 24.10. 8:00 11 2 29 200° S
Sa, 24.10. 2:00 15 3 30 220° SW
Fr, 23.10. 20:00 7 2 22 190° S
Fr, 23.10. 14:00 11 2 18 230° SW
Fr, 23.10. 8:00 4 1 14 130° SO
Fr, 23.10. 2:00 11 2 22 240° SW
Do, 22.10. 20:00 13 3 39 210° SW
Ortszeit Stärke Spitze Richtung
km/h Bft. km/h Grad Sektor
Sa, 24.10. 14:30 20 4 39 210° SW
Sa, 24.10. 14:20 20 4 - 210° SW
Sa, 24.10. 14:10 22 4 - 220° SW
Sa, 24.10. 14:00 24 4 50 210° SW
Sa, 24.10. 13:50 24 4 - 210° SW
Sa, 24.10. 13:40 26 4 - 220° SW
Sa, 24.10. 13:30 25 4 50 210° SW
Sa, 24.10. 13:00 18 3 40 220° SW
Ortszeit Untergrenze Bedeckung Gattung
total tief tief mittel hoch
Sa, 24.10. 14:00 660 m 8/8 8/8 - - -
Sa, 24.10. 8:00 840 m 8/8 8/8 - - -
Sa, 24.10. 2:00 450 m 7/8 7/8 - - -
Fr, 23.10. 20:00 420 m 3/8 3/8 - - -
Fr, 23.10. 14:00 150 m 7/8 7/8 - - -
Fr, 23.10. 8:00 840 m 8/8 8/8 - - -
Fr, 23.10. 2:00 1320 m 8/8 1/8 - - -
Do, 22.10. 20:00 1080 m 6/8 4/8 - - -
Ortszeit Bedeckungsgrad in Achtel und Wolkenuntergrenze
Sa, 24.10. 14:30 4(780m) 8(990m)
Sa, 24.10. 14:20 4(780m) 8(990m)
Sa, 24.10. 14:10 4(720m) 8(960m)
Sa, 24.10. 14:00 5(660m) 7(810m) 8(990m)
Sa, 24.10. 13:50 5(660m) 7(810m) 8(990m)
Sa, 24.10. 13:40 4(600m) 7(840m) 8(960m)
Sa, 24.10. 13:30 7(600m) 8(810m)
Sa, 24.10. 13:00 8(600m)
Ortszeit Luftdruck NN (hPa) Tendenz (hPa in 3 Std.)
Sa, 24.10. 14:00 1013 - 0,2
Sa, 24.10. 8:00 1013 + 0,2
Sa, 24.10. 2:00 1013 + 0,8
Fr, 23.10. 20:00 1011 + 0,9
Fr, 23.10. 14:00 1011 - 0,8
Fr, 23.10. 8:00 1011 - 0,9
Fr, 23.10. 2:00 1013 + 0,2
Do, 22.10. 20:00 1012 + 1,3
Ortszeit Luftdruck NN (hPa) Tendenz (hPa in 3 Std.)
Sa, 24.10. 14:30 1012 - 0,4
Sa, 24.10. 14:20 1012 keine Meldung
Sa, 24.10. 14:10 1013 keine Meldung
Sa, 24.10. 14:00 1013 - 0,2
Sa, 24.10. 13:50 1013 keine Meldung
Sa, 24.10. 13:40 1013 keine Meldung
Sa, 24.10. 13:30 1013 - 0,2
Sa, 24.10. 13:00 1013 - 0,1
Ortszeit Schneehöhe (cm)
Sa, 24.10. 14:00 0
Sa, 24.10. 8:00 0
Sa, 24.10. 2:00 0
Fr, 23.10. 20:00 0
Fr, 23.10. 14:00 0
Fr, 23.10. 8:00 0
Fr, 23.10. 2:00 0
Do, 22.10. 20:00 0
Ortszeit Schneehöhe (cm)
Sa, 24.10. 14:30 0
Sa, 24.10. 14:20 0
Sa, 24.10. 14:10 0
Sa, 24.10. 14:00 0
Sa, 24.10. 13:50 0
Sa, 24.10. 13:40 0
Sa, 24.10. 13:30 0
Sa, 24.10. 13:00 0
Link zu dieser Seite / Seite empfehlen

Das Wetter in ...